This is the latest recevied weather packets stored in our database for station/object N3WMC. If no packets are shown the sender has not sent any weather packets the latest 10 day(s).
| Time | Temp. | Humidity | Pressure | Rain* | Wind** | Luminosity | Snow |
|---|---|---|---|---|---|---|---|
| 1787420478 | 28.33° C | 61% | 1014.1 hPa | 0 mm | - | 652 W/m² | - |
| 1787420174 | 27.78° C | 65% | 1014.1 hPa | 0 mm | - | 652 W/m² | - |
| 1787419870 | 28.33° C | 60% | 1014.3 hPa | 0 mm | - | 333 W/m² | - |
| 1787419566 | 27.78° C | 63% | 1014.3 hPa | 0 mm | - | 629 W/m² | - |
| 1787419261 | 27.78° C | 62% | 1014.6 hPa | 0 mm | - | 650 W/m² | - |
| 1787418957 | 27.22° C | 64% | 1014.5 hPa | 0 mm | - | 658 W/m² | - |
| 1787418652 | 27.22° C | 63% | 1014.5 hPa | 0 mm | - | 191 W/m² | - |
| 1787418349 | 27.78° C | 64% | 1014.7 hPa | 0 mm | - | 670 W/m² | - |
| 1787418045 | 27.78° C | 63% | 1014.8 hPa | 0 mm | - | 682 W/m² | - |
| 1787417740 | 27.78° C | 64% | 1014.9 hPa | 0 mm | - | 699 W/m² | - |
| 1787417440 | 27.78° C | 65% | 1014.8 hPa | 0 mm | - | 250 W/m² | - |
| 1787417136 | 26.67° C | 67% | 1014.8 hPa | 0 mm | - | 698 W/m² | - |
| 1787416832 | 27.22° C | 65% | 1014.9 hPa | 0 mm | - | 735 W/m² | - |
| 1787416527 | 26.67° C | 67% | 1015.1 hPa | 0 mm | - | 270 W/m² | - |
| 1787416222 | 26.67° C | 69% | 1015 hPa | 0 mm | - | 677 W/m² | - |
| 1787415917 | 25.56° C | 70% | 1015.1 hPa | 0 mm | - | 671 W/m² | - |
| 1787415616 | 26.67° C | 67% | 1015 hPa | 0 mm | - | 209 W/m² | - |
| 1787415312 | 26.67° C | 68% | 1014.9 hPa | 0 mm | - | 618 W/m² | - |
| 1787415007 | 26.11° C | 70% | 1015.1 hPa | 0 mm | - | 600 W/m² | - |
| 1787414703 | 25.56° C | 69% | 1015.1 hPa | 0 mm | - | 614 W/m² | - |
| 1787414403 | 26.11° C | 70% | 1015 hPa | 0 mm | - | 605 W/m² | - |
| 1787414101 | 26.11° C | 70% | 1015.3 hPa | 0 mm | - | 597 W/m² | - |
| 1787413795 | 26.11° C | 70% | 1015.4 hPa | 0 mm | - | 597 W/m² | - |
| 1787413490 | 25.56° C | 71% | 1015.3 hPa | 0 mm | - | 591 W/m² | - |
| 1787413185 | 25.56° C | 71% | 1015.5 hPa | 0 mm | - | 576 W/m² | - |
* Rain latest hour (hover to see other rain measurements)
** Current wind speed in m/s (hover to see current wind gust speed)